sensor_id;sensor_type;location;lat;lon;timestamp;pressure;altitude;pressure_sealevel;temperature;humidity
41800;BME280;27468;47.460;19.034;2023-03-22T00:01:09;100299.44;;;8.85;65.04
41800;BME280;27468;47.460;19.034;2023-03-22T00:03:35;100361.22;;;9.17;65.56
41800;BME280;27468;47.460;19.034;2023-03-22T00:06:01;100363.94;;;9.11;65.63
41800;BME280;27468;47.460;19.034;2023-03-22T00:08:26;100319.63;;;8.83;66.06
41800;BME280;27468;47.460;19.034;2023-03-22T00:10:52;100353.69;;;8.92;66.23
41800;BME280;27468;47.460;19.034;2023-03-22T00:13:17;100344.13;;;8.85;66.71
41800;BME280;27468;47.460;19.034;2023-03-22T00:15:42;100337.13;;;8.86;66.82
41800;BME280;27468;47.460;19.034;2023-03-22T00:18:10;100361.56;;;8.92;67.13
41800;BME280;27468;47.460;19.034;2023-03-22T00:20:36;100362.53;;;8.85;67.38
41800;BME280;27468;47.460;19.034;2023-03-22T00:23:03;100369.44;;;8.94;67.41
41800;BME280;27468;47.460;19.034;2023-03-22T00:25:29;100348.53;;;8.83;67.38
41800;BME280;27468;47.460;19.034;2023-03-22T00:27:54;100350.41;;;8.75;68.06
41800;BME280;27468;47.460;19.034;2023-03-22T00:30:20;100369.56;;;8.85;68.18
41800;BME280;27468;47.460;19.034;2023-03-22T00:32:46;100276.50;;;8.31;68.34
41800;BME280;27468;47.460;19.034;2023-03-22T00:35:11;100338.41;;;8.56;69.02
41800;BME280;27468;47.460;19.034;2023-03-22T00:37:37;100300.03;;;8.41;68.63
41800;BME280;27468;47.460;19.034;2023-03-22T00:40:21;100259.13;;;8.19;68.30
41800;BME280;27468;47.460;19.034;2023-03-22T00:42:46;100333.16;;;8.56;68.97
41800;BME280;27468;47.460;19.034;2023-03-22T00:45:12;100317.59;;;8.39;69.23
41800;BME280;27468;47.460;19.034;2023-03-22T00:47:38;100360.28;;;8.56;69.64
41800;BME280;27468;47.460;19.034;2023-03-22T00:50:04;100342.91;;;8.46;69.79
41800;BME280;27468;47.460;19.034;2023-03-22T00:52:30;100350.78;;;8.45;69.85
41800;BME280;27468;47.460;19.034;2023-03-22T00:54:56;100355.19;;;8.43;69.94
41800;BME280;27468;47.460;19.034;2023-03-22T00:57:22;100316.94;;;8.14;69.97
41800;BME280;27468;47.460;19.034;2023-03-22T00:59:47;100341.31;;;8.28;70.39
41800;BME280;27468;47.460;19.034;2023-03-22T01:02:13;100336.13;;;8.22;70.11
41800;BME280;27468;47.460;19.034;2023-03-22T01:04:40;100371.94;;;8.33;70.35
41800;BME280;27468;47.460;19.034;2023-03-22T01:07:14;100361.53;;;8.19;70.48
41800;BME280;27468;47.460;19.034;2023-03-22T01:09:49;100365.91;;;8.21;70.80
41800;BME280;27468;47.460;19.034;2023-03-22T01:12:16;100329.34;;;8.05;70.63
41800;BME280;27468;47.460;19.034;2023-03-22T01:14:42;100340.69;;;8.07;70.31
41800;BME280;27468;47.460;19.034;2023-03-22T01:17:08;100309.38;;;7.87;70.40
41800;BME280;27468;47.460;19.034;2023-03-22T01:19:34;100291.09;;;7.78;70.62
41800;BME280;27468;47.460;19.034;2023-03-22T01:22:01;100304.19;;;7.82;70.62
41800;BME280;27468;47.460;19.034;2023-03-22T01:24:26;100291.16;;;7.70;70.31
41800;BME280;27468;47.460;19.034;2023-03-22T01:26:52;100336.38;;;8.01;70.45
41800;BME280;27468;47.460;19.034;2023-03-22T01:29:17;100262.53;;;7.50;70.78
41800;BME280;27468;47.460;19.034;2023-03-22T01:31:43;100271.19;;;7.55;70.87
41800;BME280;27468;47.460;19.034;2023-03-22T01:34:09;100341.69;;;7.95;70.81
41800;BME280;27468;47.460;19.034;2023-03-22T01:36:35;100335.63;;;7.88;70.37
41800;BME280;27468;47.460;19.034;2023-03-22T01:39:01;100268.69;;;7.46;70.42
41800;BME280;27468;47.460;19.034;2023-03-22T01:41:28;100324.41;;;7.71;70.08
41800;BME280;27468;47.460;19.034;2023-03-22T01:46:36;100355.88;;;7.71;71.06
41800;BME280;27468;47.460;19.034;2023-03-22T01:49:04;100332.41;;;7.54;70.98
41800;BME280;27468;47.460;19.034;2023-03-22T01:51:31;100316.81;;;7.42;71.07
41800;BME280;27468;47.460;19.034;2023-03-22T01:54:06;100343.84;;;7.49;71.05
41800;BME280;27468;47.460;19.034;2023-03-22T01:56:36;100347.38;;;7.46;71.60
41800;BME280;27468;47.460;19.034;2023-03-22T01:59:04;100341.31;;;7.37;71.47
41800;BME280;27468;47.460;19.034;2023-03-22T02:01:31;100275.16;;;7.00;71.15
41800;BME280;27468;47.460;19.034;2023-03-22T02:04:09;100317.84;;;7.18;71.44
41800;BME280;27468;47.460;19.034;2023-03-22T02:06:37;100359.66;;;7.40;71.39
41800;BME280;27468;47.460;19.034;2023-03-22T02:09:08;100356.19;;;7.36;71.67
41800;BME280;27468;47.460;19.034;2023-03-22T02:36:06;100356.50;;;6.90;72.59
41800;BME280;27468;47.460;19.034;2023-03-22T02:38:55;100373.91;;;6.94;73.07
41800;BME280;27468;47.460;19.034;2023-03-22T02:44:24;100359.13;;;6.84;73.11
41800;BME280;27468;47.460;19.034;2023-03-22T02:49:36;100375.72;;;6.88;73.27
41800;BME280;27468;47.460;19.034;2023-03-22T02:57:10;100323.44;;;6.59;74.13
41800;BME280;27468;47.460;19.034;2023-03-22T02:59:41;100387.94;;;6.90;74.30
41800;BME280;27468;47.460;19.034;2023-03-22T03:02:10;100381.75;;;6.96;74.27
41800;BME280;27468;47.460;19.034;2023-03-22T03:04:41;100319.91;;;6.68;74.20
41800;BME280;27468;47.460;19.034;2023-03-22T03:07:11;100377.34;;;7.06;73.86
41800;BME280;27468;47.460;19.034;2023-03-22T03:09:40;100325.97;;;6.82;73.48
41800;BME280;27468;47.460;19.034;2023-03-22T03:12:21;100386.06;;;7.09;74.23
41800;BME280;27468;47.460;19.034;2023-03-22T03:14:47;100384.28;;;7.14;74.15
41800;BME280;27468;47.460;19.034;2023-03-22T03:20:26;100372.03;;;7.21;73.92
41800;BME280;27468;47.460;19.034;2023-03-22T03:26:12;100366.69;;;7.33;73.12
41800;BME280;27468;47.460;19.034;2023-03-22T03:31:19;100366.69;;;7.36;73.01
41800;BME280;27468;47.460;19.034;2023-03-22T03:34:01;100381.53;;;7.37;72.69
41800;BME280;27468;47.460;19.034;2023-03-22T03:36:32;100374.56;;;7.35;73.20
41800;BME280;27468;47.460;19.034;2023-03-22T03:39:01;100364.13;;;7.27;72.97
41800;BME280;27468;47.460;19.034;2023-03-22T03:41:29;100369.31;;;7.35;72.91
41800;BME280;27468;47.460;19.034;2023-03-22T03:43:56;100356.25;;;7.25;72.71
41800;BME280;27468;47.460;19.034;2023-03-22T03:46:23;100371.94;;;7.35;73.08
41800;BME280;27468;47.460;19.034;2023-03-22T03:48:50;100358.91;;;7.21;73.12
41800;BME280;27468;47.460;19.034;2023-03-22T03:51:17;100394.63;;;7.40;72.82
41800;BME280;27468;47.460;19.034;2023-03-22T03:53:43;100386.78;;;7.39;72.88
41800;BME280;27468;47.460;19.034;2023-03-22T03:56:09;100390.34;;;7.25;73.41
41800;BME280;27468;47.460;19.034;2023-03-22T03:58:34;100384.19;;;7.31;73.42
41800;BME280;27468;47.460;19.034;2023-03-22T04:01:00;100391.16;;;7.35;72.98
41800;BME280;27468;47.460;19.034;2023-03-22T04:03:25;100321.50;;;6.94;73.66
41800;BME280;27468;47.460;19.034;2023-03-22T04:05:51;100378.13;;;7.23;73.97
41800;BME280;27468;47.460;19.034;2023-03-22T04:08:16;100338.09;;;6.93;73.40
41800;BME280;27468;47.460;19.034;2023-03-22T04:10:41;100381.69;;;7.13;73.84
41800;BME280;27468;47.460;19.034;2023-03-22T04:13:08;100366.00;;;7.01;74.12
41800;BME280;27468;47.460;19.034;2023-03-22T04:15:33;100386.94;;;7.07;74.57
41800;BME280;27468;47.460;19.034;2023-03-22T04:17:58;100375.66;;;6.95;74.36
41800;BME280;27468;47.460;19.034;2023-03-22T04:20:24;100370.38;;;7.02;74.00
41800;BME280;27468;47.460;19.034;2023-03-22T04:22:50;100379.13;;;7.01;74.96
41800;BME280;27468;47.460;19.034;2023-03-22T04:25:17;100378.28;;;6.94;74.27
41800;BME280;27468;47.460;19.034;2023-03-22T04:27:44;100343.47;;;6.74;74.30
41800;BME280;27468;47.460;19.034;2023-03-22T04:30:13;100350.47;;;6.73;74.63
41800;BME280;27468;47.460;19.034;2023-03-22T04:32:47;100366.13;;;6.82;75.53
41800;BME280;27468;47.460;19.034;2023-03-22T04:35:13;100369.63;;;6.80;76.05
41800;BME280;27468;47.460;19.034;2023-03-22T04:37:38;100329.56;;;6.61;76.32
41800;BME280;27468;47.460;19.034;2023-03-22T04:40:06;100360.84;;;6.90;76.13
41800;BME280;27468;47.460;19.034;2023-03-22T04:42:33;100366.09;;;6.90;75.89
41800;BME280;27468;47.460;19.034;2023-03-22T04:44:58;100347.81;;;6.76;76.24
41800;BME280;27468;47.460;19.034;2023-03-22T04:47:24;100367.88;;;6.86;76.54
41800;BME280;27468;47.460;19.034;2023-03-22T04:49:50;100366.13;;;6.82;77.07
41800;BME280;27468;47.460;19.034;2023-03-22T04:52:16;100390.50;;;6.98;77.60
41800;BME280;27468;47.460;19.034;2023-03-22T04:54:41;100395.75;;;6.93;77.61
41800;BME280;27468;47.460;19.034;2023-03-22T04:57:06;100400.94;;;7.04;77.62
41800;BME280;27468;47.460;19.034;2023-03-22T04:59:32;100405.31;;;7.07;77.71
41800;BME280;27468;47.460;19.034;2023-03-22T05:01:58;100405.28;;;7.10;77.82
41800;BME280;27468;47.460;19.034;2023-03-22T05:04:23;100406.19;;;7.06;78.23
41800;BME280;27468;47.460;19.034;2023-03-22T05:06:49;100351.31;;;6.75;77.87
41800;BME280;27468;47.460;19.034;2023-03-22T05:09:15;100392.19;;;7.05;77.82
41800;BME280;27468;47.460;19.034;2023-03-22T05:11:41;100350.44;;;6.75;78.11
41800;BME280;27468;47.460;19.034;2023-03-22T05:14:08;100407.94;;;7.04;78.39
41800;BME280;27468;47.460;19.034;2023-03-22T05:16:33;100367.88;;;6.83;78.09
41800;BME280;27468;47.460;19.034;2023-03-22T05:18:59;100364.41;;;6.80;78.38
41800;BME280;27468;47.460;19.034;2023-03-22T05:21:27;100411.41;;;7.12;78.73
41800;BME280;27468;47.460;19.034;2023-03-22T05:23:57;100393.03;;;7.13;78.56
41800;BME280;27468;47.460;19.034;2023-03-22T05:26:24;100342.44;;;6.96;78.36
41800;BME280;27468;47.460;19.034;2023-03-22T05:28:54;100419.94;;;7.49;77.87
41800;BME280;27468;47.460;19.034;2023-03-22T05:31:20;100401.59;;;7.43;77.52
41800;BME280;27468;47.460;19.034;2023-03-22T05:33:50;100407.59;;;7.55;77.70
41800;BME280;27468;47.460;19.034;2023-03-22T05:36:17;100407.56;;;7.60;77.26
41800;BME280;27468;47.460;19.034;2023-03-22T05:38:43;100420.53;;;7.83;77.02
41800;BME280;27468;47.460;19.034;2023-03-22T05:41:10;100390.91;;;7.69;76.89
41800;BME280;27468;47.460;19.034;2023-03-22T05:43:35;100403.91;;;7.82;76.29
41800;BME280;27468;47.460;19.034;2023-03-22T05:46:05;100431.72;;;8.08;76.17
41800;BME280;27468;47.460;19.034;2023-03-22T05:48:32;100395.88;;;8.02;76.07
41800;BME280;27468;47.460;19.034;2023-03-22T05:50:57;100402.75;;;8.12;75.63
41800;BME280;27468;47.460;19.034;2023-03-22T05:53:22;100418.34;;;8.31;75.71
41800;BME280;27468;47.460;19.034;2023-03-22T05:55:48;100383.50;;;8.10;75.92
41800;BME280;27468;47.460;19.034;2023-03-22T05:58:13;100403.47;;;8.33;75.66
41800;BME280;27468;47.460;19.034;2023-03-22T06:00:46;100383.34;;;8.28;75.22
41800;BME280;27468;47.460;19.034;2023-03-22T06:03:14;100432.91;;;8.64;75.06
41800;BME280;27468;47.460;19.034;2023-03-22T06:05:39;100370.19;;;8.33;74.69
41800;BME280;27468;47.460;19.034;2023-03-22T06:08:04;100397.03;;;8.61;74.26
41800;BME280;27468;47.460;19.034;2023-03-22T06:10:30;100423.03;;;8.82;73.73
41800;BME280;27468;47.460;19.034;2023-03-22T06:12:55;100442.88;;;9.08;73.96
41800;BME280;27468;47.460;19.034;2023-03-22T06:15:21;100428.94;;;9.03;73.97
41800;BME280;27468;47.460;19.034;2023-03-22T06:17:47;100438.38;;;9.19;73.54
41800;BME280;27468;47.460;19.034;2023-03-22T06:20:12;100388.50;;;9.11;73.43
41800;BME280;27468;47.460;19.034;2023-03-22T06:22:39;100427.44;;;9.46;72.82
41800;BME280;27468;47.460;19.034;2023-03-22T06:25:06;100422.03;;;9.55;72.69
41800;BME280;27468;47.460;19.034;2023-03-22T06:27:32;100441.78;;;9.82;72.70
41800;BME280;27468;47.460;19.034;2023-03-22T06:29:58;100452.03;;;10.01;72.23
41800;BME280;27468;47.460;19.034;2023-03-22T06:32:24;100432.78;;;9.96;71.49
41800;BME280;27468;47.460;19.034;2023-03-22T06:34:52;100445.69;;;10.12;71.48
41800;BME280;27468;47.460;19.034;2023-03-22T06:37:17;100446.34;;;10.27;71.58
41800;BME280;27468;47.460;19.034;2023-03-22T06:39:43;100447.03;;;10.38;71.10
41800;BME280;27468;47.460;19.034;2023-03-22T06:42:08;100413.72;;;10.35;70.88
41800;BME280;27468;47.460;19.034;2023-03-22T06:44:34;100442.03;;;10.70;70.63
41800;BME280;27468;47.460;19.034;2023-03-22T06:46:59;100393.22;;;10.48;70.05
41800;BME280;27468;47.460;19.034;2023-03-22T06:49:25;100413.91;;;10.69;69.50
41800;BME280;27468;47.460;19.034;2023-03-22T06:51:53;100423.31;;;10.82;69.32
41800;BME280;27468;47.460;19.034;2023-03-22T06:54:18;100433.47;;;11.01;69.34
41800;BME280;27468;47.460;19.034;2023-03-22T06:56:44;100437.50;;;11.18;68.56
41800;BME280;27468;47.460;19.034;2023-03-22T06:59:09;100409.47;;;11.13;67.79
41800;BME280;27468;47.460;19.034;2023-03-22T07:01:34;100453.75;;;11.40;67.81
41800;BME280;27468;47.460;19.034;2023-03-22T07:04:00;100432.53;;;11.45;66.34
41800;BME280;27468;47.460;19.034;2023-03-22T07:06:26;100411.59;;;11.37;65.60
41800;BME280;27468;47.460;19.034;2023-03-22T07:08:51;100452.28;;;11.66;65.35
41800;BME280;27468;47.460;19.034;2023-03-22T07:11:17;100423.41;;;11.58;64.98
41800;BME280;27468;47.460;19.034;2023-03-22T07:13:42;100461.44;;;11.89;64.73
41800;BME280;27468;47.460;19.034;2023-03-22T07:16:09;100428.31;;;11.73;63.70
41800;BME280;27468;47.460;19.034;2023-03-22T07:18:35;100473.63;;;11.95;62.95
41800;BME280;27468;47.460;19.034;2023-03-22T07:21:01;100428.06;;;11.85;63.25
41800;BME280;27468;47.460;19.034;2023-03-22T07:23:26;100465.44;;;12.06;62.37
41800;BME280;27468;47.460;19.034;2023-03-22T07:25:51;100472.69;;;12.32;62.15
41800;BME280;27468;47.460;19.034;2023-03-22T07:28:20;100448.75;;;12.38;61.77
41800;BME280;27468;47.460;19.034;2023-03-22T07:30:45;100430.97;;;12.44;61.45
41800;BME280;27468;47.460;19.034;2023-03-22T07:33:11;100411.19;;;12.25;59.58
41800;BME280;27468;47.460;19.034;2023-03-22T07:35:36;100464.66;;;12.70;59.63
41800;BME280;27468;47.460;19.034;2023-03-22T07:38:03;100450.13;;;12.83;58.60
41800;BME280;27468;47.460;19.034;2023-03-22T07:40:29;100467.47;;;12.95;58.75
41800;BME280;27468;47.460;19.034;2023-03-22T07:42:55;100440.81;;;13.01;58.44
41800;BME280;27468;47.460;19.034;2023-03-22T07:45:21;100433.53;;;13.09;58.13
41800;BME280;27468;47.460;19.034;2023-03-22T07:47:47;100414.28;;;13.04;57.79
41800;BME280;27468;47.460;19.034;2023-03-22T07:50:13;100457.28;;;13.42;57.14
41800;BME280;27468;47.460;19.034;2023-03-22T07:52:42;100451.66;;;13.52;56.69
41800;BME280;27468;47.460;19.034;2023-03-22T07:55:09;100463.38;;;13.73;56.73
41800;BME280;27468;47.460;19.034;2023-03-22T07:57:35;100441.56;;;13.65;55.49
41800;BME280;27468;47.460;19.034;2023-03-22T08:00:02;100467.31;;;13.88;55.16
41800;BME280;27468;47.460;19.034;2023-03-22T08:02:29;100397.34;;;13.67;55.26
41800;BME280;27468;47.460;19.034;2023-03-22T08:04:54;100435.09;;;14.00;54.65
41800;BME280;27468;47.460;19.034;2023-03-22T08:07:20;100461.72;;;14.24;54.59
41800;BME280;27468;47.460;19.034;2023-03-22T08:09:45;100459.22;;;14.19;54.21
41800;BME280;27468;47.460;19.034;2023-03-22T08:12:11;100443.16;;;14.24;53.39
41800;BME280;27468;47.460;19.034;2023-03-22T08:14:37;100447.19;;;14.35;53.24
41800;BME280;27468;47.460;19.034;2023-03-22T08:17:04;100431.13;;;14.40;53.41
41800;BME280;27468;47.460;19.034;2023-03-22T08:19:30;100401.94;;;14.40;53.17
41800;BME280;27468;47.460;19.034;2023-03-22T08:21:57;100425.19;;;14.58;52.82
41800;BME280;27468;47.460;19.034;2023-03-22T08:24:24;100439.25;;;14.60;52.50
41800;BME280;27468;47.460;19.034;2023-03-22T08:26:49;100411.09;;;14.56;51.54
41800;BME280;27468;47.460;19.034;2023-03-22T08:29:14;100383.00;;;14.50;51.45
41800;BME280;27468;47.460;19.034;2023-03-22T08:31:41;100440.13;;;14.85;51.52
41800;BME280;27468;47.460;19.034;2023-03-22T08:34:08;100406.28;;;14.67;51.32
41800;BME280;27468;47.460;19.034;2023-03-22T08:36:33;100436.25;;;14.94;51.29
41800;BME280;27468;47.460;19.034;2023-03-22T08:38:59;100409.84;;;14.91;50.83
41800;BME280;27468;47.460;19.034;2023-03-22T08:41:26;100448.56;;;15.20;50.38
41800;BME280;27468;47.460;19.034;2023-03-22T08:43:51;100441.28;;;15.25;50.23
41800;BME280;27468;47.460;19.034;2023-03-22T08:46:17;100400.09;;;15.13;50.15
41800;BME280;27468;47.460;19.034;2023-03-22T08:48:42;100438.22;;;15.36;49.63
41800;BME280;27468;47.460;19.034;2023-03-22T08:51:16;100431.22;;;15.33;49.35
41800;BME280;27468;47.460;19.034;2023-03-22T08:53:41;100437.56;;;15.52;49.12
41800;BME280;27468;47.460;19.034;2023-03-22T08:56:07;100455.69;;;15.65;49.05
41800;BME280;27468;47.460;19.034;2023-03-22T08:58:33;100431.13;;;15.60;48.88
41800;BME280;27468;47.460;19.034;2023-03-22T09:00:59;100424.16;;;15.56;48.52
41800;BME280;27468;47.460;19.034;2023-03-22T09:03:25;100442.78;;;15.77;48.53
41800;BME280;27468;47.460;19.034;2023-03-22T09:05:51;100431.78;;;15.87;48.56
41800;BME280;27468;47.460;19.034;2023-03-22T09:08:16;100422.63;;;15.94;48.29
41800;BME280;27468;47.460;19.034;2023-03-22T09:10:42;100423.59;;;16.13;48.05
41800;BME280;27468;47.460;19.034;2023-03-22T09:13:08;100448.59;;;16.09;47.16
41800;BME280;27468;47.460;19.034;2023-03-22T09:15:33;100404.63;;;16.00;47.34
41800;BME280;27468;47.460;19.034;2023-03-22T09:17:59;100456.13;;;16.40;47.32
41800;BME280;27468;47.460;19.034;2023-03-22T09:20:24;100434.56;;;16.26;46.81
41800;BME280;27468;47.460;19.034;2023-03-22T09:22:51;100458.22;;;16.54;46.85
41800;BME280;27468;47.460;19.034;2023-03-22T09:25:17;100427.53;;;16.45;46.68
41800;BME280;27468;47.460;19.034;2023-03-22T09:27:42;100385.28;;;16.37;46.17
41800;BME280;27468;47.460;19.034;2023-03-22T09:30:08;100438.25;;;16.64;45.96
41800;BME280;27468;47.460;19.034;2023-03-22T09:32:34;100444.34;;;16.67;46.15
41800;BME280;27468;47.460;19.034;2023-03-22T09:34:59;100396.19;;;16.51;46.13
41800;BME280;27468;47.460;19.034;2023-03-22T09:37:25;100421.09;;;16.71;45.84
41800;BME280;27468;47.460;19.034;2023-03-22T09:39:55;100435.44;;;16.87;45.68
41800;BME280;27468;47.460;19.034;2023-03-22T09:42:37;100429.56;;;16.99;45.14
41800;BME280;27468;47.460;19.034;2023-03-22T09:45:10;100392.13;;;16.83;45.44
41800;BME280;27468;47.460;19.034;2023-03-22T09:47:42;100394.44;;;16.91;45.28
41800;BME280;27468;47.460;19.034;2023-03-22T09:50:18;100442.13;;;17.16;44.92
41800;BME280;27468;47.460;19.034;2023-03-22T09:52:45;100420.88;;;17.14;44.74
41800;BME280;27468;47.460;19.034;2023-03-22T09:55:36;100387.16;;;16.95;44.93
41800;BME280;27468;47.460;19.034;2023-03-22T09:58:23;100442.91;;;17.18;44.49
41800;BME280;27468;47.460;19.034;2023-03-22T10:01:03;100438.31;;;17.22;44.73
41800;BME280;27468;47.460;19.034;2023-03-22T10:04:16;100443.78;;;17.19;44.59
41800;BME280;27468;47.460;19.034;2023-03-22T10:06:23;100440.91;;;17.23;44.58
41800;BME280;27468;47.460;19.034;2023-03-22T10:12:05;100431.91;;;17.26;44.73
41800;BME280;27468;47.460;19.034;2023-03-22T10:14:41;100428.97;;;17.32;44.51
41800;BME280;27468;47.460;19.034;2023-03-22T10:17:17;100408.00;;;17.24;44.32
41800;BME280;27468;47.460;19.034;2023-03-22T10:19:53;100412.69;;;17.19;44.12
41800;BME280;27468;47.460;19.034;2023-03-22T10:22:43;100437.25;;;17.26;44.25
41800;BME280;27468;47.460;19.034;2023-03-22T10:25:08;100427.16;;;17.13;44.44
41800;BME280;27468;47.460;19.034;2023-03-22T10:27:35;100429.34;;;17.04;44.49
41800;BME280;27468;47.460;19.034;2023-03-22T10:30:22;100424.91;;;17.04;44.70
41800;BME280;27468;47.460;19.034;2023-03-22T10:32:59;100419.91;;;16.97;45.06
41800;BME280;27468;47.460;19.034;2023-03-22T10:35:26;100395.03;;;16.77;45.04
41800;BME280;27468;47.460;19.034;2023-03-22T10:37:54;100422.72;;;16.94;44.90
41800;BME280;27468;47.460;19.034;2023-03-22T10:40:33;100427.56;;;17.04;44.94
41800;BME280;27468;47.460;19.034;2023-03-22T10:45:32;100427.28;;;17.10;45.47
41800;BME280;27468;47.460;19.034;2023-03-22T10:48:10;100413.88;;;16.93;45.03
41800;BME280;27468;47.460;19.034;2023-03-22T10:50:41;100398.16;;;16.68;44.97
41800;BME280;27468;47.460;19.034;2023-03-22T10:55:42;100364.88;;;16.38;45.45
41800;BME280;27468;47.460;19.034;2023-03-22T10:58:18;100420.88;;;16.75;45.56
41800;BME280;27468;47.460;19.034;2023-03-22T11:00:46;100404.91;;;16.75;45.82
41800;BME280;27468;47.460;19.034;2023-03-22T11:03:47;100376.22;;;16.62;45.73
41800;BME280;27468;47.460;19.034;2023-03-22T11:08:55;100371.78;;;16.62;45.26
41800;BME280;27468;47.460;19.034;2023-03-22T11:11:35;100408.16;;;16.82;45.61
41800;BME280;27468;47.460;19.034;2023-03-22T11:14:13;100405.63;;;16.79;45.65
41800;BME280;27468;47.460;19.034;2023-03-22T11:16:51;100373.81;;;16.76;45.58
41800;BME280;27468;47.460;19.034;2023-03-22T11:19:30;100333.47;;;16.46;45.95
41800;BME280;27468;47.460;19.034;2023-03-22T11:21:57;100374.06;;;16.71;46.39
41800;BME280;27468;47.460;19.034;2023-03-22T11:24:27;100373.47;;;16.65;46.24
41800;BME280;27468;47.460;19.034;2023-03-22T11:29:52;100366.88;;;16.73;46.09
41800;BME280;27468;47.460;19.034;2023-03-22T11:32:38;100386.19;;;16.77;45.99
41800;BME280;27468;47.460;19.034;2023-03-22T11:35:23;100394.34;;;16.74;45.49
41800;BME280;27468;47.460;19.034;2023-03-22T11:37:54;100379.44;;;16.70;45.87
41800;BME280;27468;47.460;19.034;2023-03-22T11:40:28;100330.59;;;16.50;45.95
41800;BME280;27468;47.460;19.034;2023-03-22T11:43:01;100357.16;;;16.72;45.93
41800;BME280;27468;47.460;19.034;2023-03-22T11:45:35;100373.47;;;16.83;45.55
41800;BME280;27468;47.460;19.034;2023-03-22T11:48:07;100362.41;;;16.74;45.50
41800;BME280;27468;47.460;19.034;2023-03-22T11:50:35;100286.78;;;16.39;45.55
41800;BME280;27468;47.460;19.034;2023-03-22T11:53:03;100341.38;;;16.68;45.54
41800;BME280;27468;47.460;19.034;2023-03-22T11:55:31;100344.38;;;16.79;45.39
41800;BME280;27468;47.460;19.034;2023-03-22T11:58:01;100350.88;;;16.92;45.07
41800;BME280;27468;47.460;19.034;2023-03-22T12:00:29;100371.47;;;17.07;44.86
41800;BME280;27468;47.460;19.034;2023-03-22T12:03:01;100341.81;;;16.96;44.60
41800;BME280;27468;47.460;19.034;2023-03-22T12:05:30;100364.34;;;17.08;44.61
41800;BME280;27468;47.460;19.034;2023-03-22T12:10:29;100366.75;;;17.33;44.42
41800;BME280;27468;47.460;19.034;2023-03-22T12:13:11;100371.03;;;17.35;43.66
41800;BME280;27468;47.460;19.034;2023-03-22T12:15:41;100362.66;;;17.43;43.83
41800;BME280;27468;47.460;19.034;2023-03-22T12:18:46;100321.50;;;17.31;44.01
41800;BME280;27468;47.460;19.034;2023-03-22T12:21:09;100341.16;;;17.65;43.91
41800;BME280;27468;47.460;19.034;2023-03-22T12:23:36;100345.84;;;17.78;43.68
41800;BME280;27468;47.460;19.034;2023-03-22T12:31:06;100356.81;;;18.24;42.50
41800;BME280;27468;47.460;19.034;2023-03-22T12:33:44;100348.75;;;18.08;42.06
41800;BME280;27468;47.460;19.034;2023-03-22T12:36:16;100315.47;;;18.15;42.38
41800;BME280;27468;47.460;19.034;2023-03-22T12:39:04;100361.28;;;18.41;41.62
41800;BME280;27468;47.460;19.034;2023-03-22T12:41:34;100300.00;;;18.05;41.48
41800;BME280;27468;47.460;19.034;2023-03-22T12:44:24;100356.19;;;18.36;41.66
41800;BME280;27468;47.460;19.034;2023-03-22T12:46:59;100313.66;;;18.16;41.73
41800;BME280;27468;47.460;19.034;2023-03-22T12:49:47;100349.34;;;18.48;41.89
41800;BME280;27468;47.460;19.034;2023-03-22T12:52:19;100311.75;;;18.35;41.94
41800;BME280;27468;47.460;19.034;2023-03-22T12:54:49;100335.13;;;18.47;41.52
41800;BME280;27468;47.460;19.034;2023-03-22T12:57:15;100341.78;;;18.56;41.29
41800;BME280;27468;47.460;19.034;2023-03-22T12:59:49;100328.25;;;18.59;41.08
41800;BME280;27468;47.460;19.034;2023-03-22T13:02:22;100292.75;;;18.41;40.82
41800;BME280;27468;47.460;19.034;2023-03-22T13:04:53;100327.72;;;18.70;40.63
41800;BME280;27468;47.460;19.034;2023-03-22T13:07:38;100321.00;;;18.78;39.89
41800;BME280;27468;47.460;19.034;2023-03-22T13:13:09;100271.31;;;18.59;38.60
41800;BME280;27468;47.460;19.034;2023-03-22T13:15:40;100307.78;;;18.93;38.61
41800;BME280;27468;47.460;19.034;2023-03-22T13:26:18;100285.19;;;18.83;38.22
41800;BME280;27468;47.460;19.034;2023-03-22T13:28:56;100301.13;;;19.00;37.75
41800;BME280;27468;47.460;19.034;2023-03-22T13:31:45;100293.38;;;18.95;36.81
41800;BME280;27468;47.460;19.034;2023-03-22T13:34:19;100251.31;;;18.67;36.89
41800;BME280;27468;47.460;19.034;2023-03-22T13:36:53;100299.25;;;19.02;36.93
41800;BME280;27468;47.460;19.034;2023-03-22T13:39:19;100291.81;;;19.07;36.40
41800;BME280;27468;47.460;19.034;2023-03-22T13:41:48;100240.72;;;18.82;36.41
41800;BME280;27468;47.460;19.034;2023-03-22T13:44:30;100271.13;;;19.10;36.25
41800;BME280;27468;47.460;19.034;2023-03-22T13:47:00;100275.59;;;19.10;36.38
41800;BME280;27468;47.460;19.034;2023-03-22T13:49:47;100293.78;;;19.19;36.23
41800;BME280;27468;47.460;19.034;2023-03-22T13:52:43;100275.03;;;19.05;35.97
41800;BME280;27468;47.460;19.034;2023-03-22T13:58:01;100228.66;;;18.90;36.50
41800;BME280;27468;47.460;19.034;2023-03-22T14:02:58;100205.91;;;18.67;36.05
41800;BME280;27468;47.460;19.034;2023-03-22T14:05:27;100274.75;;;19.09;35.53
41800;BME280;27468;47.460;19.034;2023-03-22T14:07:55;100217.28;;;18.87;35.46
41800;BME280;27468;47.460;19.034;2023-03-22T14:10:30;100248.09;;;19.08;35.13
41800;BME280;27468;47.460;19.034;2023-03-22T14:15:49;100267.53;;;18.96;35.19
41800;BME280;27468;47.460;19.034;2023-03-22T14:18:28;100247.25;;;18.76;34.93
41800;BME280;27468;47.460;19.034;2023-03-22T14:21:00;100239.00;;;18.80;35.02
41800;BME280;27468;47.460;19.034;2023-03-22T14:23:36;100261.94;;;19.00;35.09